Terminal Aerodrome Forecast
Issued by NWS

Home | Current Version | Previous Version | Text Only | Print | Product List | Glossary On
Versions: 1 2 3 4 5 6 7 8 9 10 11 12 13 14 15 16 17 18 19 20 21 22 23 24 25 26 27 28 29 30 31 32 33 34 35 36 37
000
FTUS42 KGSP 282155 AAA
TAFHKY
TAF AMD
KHKY 282155Z 2822/2918 15005KT P6SM VCTS SCT050CB
      TEMPO 2822/2824 3SM TSRA OVC030CB
     FM290300 00000KT P6SM BKN250
     FM291100 00000KT 2SM BR BKN250
     FM291300 00000KT P6SM BKN250
     FM291500 00000KT P6SM BKN040=

USA.gov is the U.S. government's official web portal to all federal, state and local government web resources and services.